Rhodes, Greece
Current Conditions -  °F | °C
As of 9:20 AM on Wednesday 28 Jan 2015 (Local Time) from LGRP Reporting Station
Broken Clouds Broken Clouds  
Wind Chill: 52°   Ceiling: 2000
Heat Index: 52°   Visibility: 6mi
Dew Point: 43°   Wind: 3mph
Humidity: 71%   Direction: NA
Pressure: 29.83"   Gusts: NA
Location:  36.43°N, 28.22°E
Report Text: LGRP 280620Z VRB03KT 9999 FEW018TCU BKN020 11/06 Q1010 NOSIG
Loading
Personal Weather Stations






























Interactive Weather Map New forecast layout! Learn more

10-Day Weather Forecast

Advertisements
Track Severe Weather on mobile